TimeMST,TemperatureF,Dew PointF,Humidity,Sea Level PressureIn,VisibilityMPH,Wind Direction,Wind SpeedMPH,Gust SpeedMPH,PrecipitationIn,Events,Conditions,WindDirDegrees,DateUTC
12:18 AM,17.6,15.8,93,29.60,10.0,NNW,17.3,26.5,N/A,,Overcast,330,2013-01-11 07:18:00
12:53 AM,17.1,12.9,84,29.70,9.0,NW,17.3,24.2,0.00,Snow,Light Snow,320,2013-01-11 07:53:00
1:18 AM,17.6,12.2,79,29.62,10.0,NW,12.7,-,0.00,,Overcast,320,2013-01-11 08:18:00
1:43 AM,17.6,12.2,79,29.62,1.8,NW,11.5,-,0.00,Snow,Light Snow,320,2013-01-11 08:43:00
1:53 AM,17.1,12.9,84,29.71,1.2,NW,10.4,-,0.01,Snow,Light Snow,310,2013-01-11 08:53:00
2:18 AM,15.8,12.2,86,29.63,2.5,WNW,12.7,-,0.00,Snow,Light Snow,300,2013-01-11 09:18:00
2:27 AM,15.8,12.2,86,29.63,4.0,WNW,13.8,-,0.00,Snow,Light Snow,300,2013-01-11 09:27:00
2:53 AM,15.1,10.9,84,29.73,3.0,NW,10.4,-,0.00,Snow,Light Snow,310,2013-01-11 09:53:00
3:06 AM,15.8,10.4,79,29.63,4.0,NW,12.7,-,0.00,Snow,Light Snow,320,2013-01-11 10:06:00
3:53 AM,15.1,10.9,84,29.74,4.0,NW,11.5,-,0.00,Snow,Light Snow,320,2013-01-11 10:53:00
4:25 AM,12.2,8.6,85,29.64,3.0,NW,16.1,-,0.00,Snow,Light Snow,320,2013-01-11 11:25:00
4:40 AM,12.2,8.6,85,29.64,4.0,NW,16.1,-,0.00,Snow,Light Snow,320,2013-01-11 11:40:00
4:53 AM,12.0,7.0,80,29.78,4.0,NW,17.3,-,0.00,Snow,Light Snow,320,2013-01-11 11:53:00
5:53 AM,10.9,5.0,77,29.80,6.0,NW,17.3,-,0.00,Snow,Light Snow,320,2013-01-11 12:53:00
6:53 AM,10.0,3.9,76,29.83,9.0,NNW,17.3,-,0.00,Snow,Light Snow,330,2013-01-11 13:53:00
7:53 AM,8.1,3.0,80,29.83,9.0,NW,26.5,33.4,0.00,,Overcast,320,2013-01-11 14:53:00
8:53 AM,9.0,3.0,77,29.90,10.0,NW,25.3,-,N/A,,Overcast,320,2013-01-11 15:53:00
9:53 AM,10.0,-0.0,64,29.91,4.0,WNW,28.8,32.2,0.00,Snow,Light Snow,300,2013-01-11 16:53:00
9:59 AM,10.4,1.4,67,29.74,1.8,WNW,25.3,32.2,0.00,Snow,Light Snow,300,2013-01-11 16:59:00
10:09 AM,10.4,1.4,67,29.74,1.5,WNW,25.3,32.2,0.00,Snow,Light Snow,300,2013-01-11 17:09:00
10:46 AM,10.4,1.4,67,29.75,3.0,NW,23.0,34.5,0.00,Snow,Light Snow,310,2013-01-11 17:46:00
10:53 AM,10.0,1.9,70,29.92,4.0,NW,21.9,-,0.00,Snow,Light Snow,320,2013-01-11 17:53:00
11:03 AM,8.6,1.4,73,29.74,5.0,NW,24.2,29.9,N/A,,Haze,320,2013-01-11 18:03:00
11:53 AM,9.0,3.0,77,29.92,10.0,NNW,24.2,-,N/A,,Overcast,340,2013-01-11 18:53:00
12:53 PM,9.0,3.0,77,29.92,4.0,NNW,28.8,35.7,0.00,Snow,Light Snow,330,2013-01-11 19:53:00
1:16 PM,8.6,3.2,79,29.72,2.0,NNW,28.8,34.5,0.00,Snow,Light Snow,330,2013-01-11 20:16:00
1:31 PM,8.6,1.4,73,29.72,6.0,NNW,26.5,32.2,0.00,,Haze,340,2013-01-11 20:31:00
1:53 PM,9.0,1.9,73,29.93,10.0,NNW,26.5,33.4,0.00,,Mostly Cloudy,330,2013-01-11 20:53:00
2:53 PM,8.1,-0.0,70,29.97,10.0,NW,31.1,38.0,N/A,,Clear,320,2013-01-11 21:53:00
3:53 PM,7.0,-0.0,73,29.99,10.0,NNW,29.9,38.0,N/A,,Mostly Cloudy,340,2013-01-11 22:53:00
4:53 PM,7.0,-0.0,73,30.05,10.0,NNW,28.8,35.7,N/A,,Mostly Cloudy,330,2013-01-11 23:53:00
5:53 PM,6.1,-0.9,73,30.10,10.0,NW,26.5,35.7,N/A,,Overcast,320,2013-01-12 00:53:00
6:53 PM,6.1,1.0,80,30.13,5.0,NNW,16.1,-,0.00,Snow,Light Snow,330,2013-01-12 01:53:00
7:04 PM,6.8,1.4,79,29.91,4.0,NNW,15.0,-,0.00,Snow,Light Snow,340,2013-01-12 02:04:00
7:25 PM,6.8,1.4,79,29.91,6.0,NNW,21.9,27.6,0.00,Snow,Light Snow,330,2013-01-12 02:25:00
7:43 PM,6.8,1.4,79,29.91,2.0,NW,24.2,-,0.00,Snow,Light Snow,320,2013-01-12 02:43:00
7:46 PM,6.8,1.4,79,29.91,1.5,NW,26.5,32.2,0.00,Snow,Light Snow,320,2013-01-12 02:46:00
7:53 PM,5.0,1.0,84,30.14,1.2,NW,26.5,35.7,0.00,Snow,Light Snow,320,2013-01-12 02:53:00
8:12 PM,5.0,-0.4,78,29.91,0.8,NW,31.1,38.0,0.00,Snow,Light Snow,320,2013-01-12 03:12:00
8:53 PM,5.0,-0.9,76,30.16,1.2,NW,33.4,50.6,0.00,Snow,Light Snow,310,2013-01-12 03:53:00
9:53 PM,6.1,-0.0,76,30.16,1.2,NW,34.5,42.6,0.00,Snow,Light Snow,310,2013-01-12 04:53:00
10:18 PM,5.0,-0.4,78,29.94,3.0,NW,31.1,39.1,0.00,,Overcast,320,2013-01-12 05:18:00
10:53 PM,5.0,-0.9,76,30.19,3.0,NW,33.4,42.6,0.00,,Overcast,320,2013-01-12 05:53:00
11:53 PM,5.0,-0.9,76,30.21,10.0,NW,27.6,35.7,0.00,,Overcast,310,2013-01-12 06:53:00